sensor_id;sensor_type;location;lat;lon;timestamp;pressure;altitude;pressure_sealevel;temperature;humidity
49055;BME280;35405;52.344;14.530;2023-08-06T04:15:33;99943.38;;;16.92;82.26
49055;BME280;35405;52.344;14.530;2023-08-06T04:17:58;99936.63;;;17.02;81.93
49055;BME280;35405;52.344;14.530;2023-08-06T04:20:23;99929.44;;;17.05;81.89
49055;BME280;35405;52.344;14.530;2023-08-06T04:22:48;99923.25;;;17.06;81.89
49055;BME280;35405;52.344;14.530;2023-08-06T04:25:13;99928.94;;;17.14;81.91
49055;BME280;35405;52.344;14.530;2023-08-06T04:27:39;99930.72;;;17.13;81.75
49055;BME280;35405;52.344;14.530;2023-08-06T04:30:06;99919.59;;;16.92;81.05
49055;BME280;35405;52.344;14.530;2023-08-06T04:32:32;99921.22;;;16.63;82.17
49055;BME280;35405;52.344;14.530;2023-08-06T04:34:57;99916.84;;;16.62;83.12
49055;BME280;35405;52.344;14.530;2023-08-06T04:37:22;99916.19;;;16.74;82.87
49055;BME280;35405;52.344;14.530;2023-08-06T04:39:47;99908.78;;;16.81;82.87
49055;BME280;35405;52.344;14.530;2023-08-06T04:42:12;99912.44;;;16.94;82.90
49055;BME280;35405;52.344;14.530;2023-08-06T04:44:38;99899.63;;;17.02;82.56
49055;BME280;35405;52.344;14.530;2023-08-06T04:47:03;99891.44;;;17.07;82.11
49055;BME280;35405;52.344;14.530;2023-08-06T04:49:28;99887.59;;;17.13;82.05
49055;BME280;35405;52.344;14.530;2023-08-06T04:51:53;99882.09;;;17.16;81.81
49055;BME280;35405;52.344;14.530;2023-08-06T04:54:19;99884.00;;;17.14;81.94
49055;BME280;35405;52.344;14.530;2023-08-06T04:56:44;99885.00;;;17.11;81.71
49055;BME280;35405;52.344;14.530;2023-08-06T04:59:09;99879.41;;;17.01;81.83
49055;BME280;35405;52.344;14.530;2023-08-06T05:01:34;99877.03;;;16.97;82.27
49055;BME280;35405;52.344;14.530;2023-08-06T05:03:59;99881.56;;;16.95;82.60
49055;BME280;35405;52.344;14.530;2023-08-06T05:06:25;99868.53;;;16.92;82.49
49055;BME280;35405;52.344;14.530;2023-08-06T05:08:50;99872.47;;;16.85;82.25
49055;BME280;35405;52.344;14.530;2023-08-06T05:11:15;99861.97;;;16.83;82.62
49055;BME280;35405;52.344;14.530;2023-08-06T05:13:40;99868.41;;;16.79;82.61
49055;BME280;35405;52.344;14.530;2023-08-06T05:16:05;99867.78;;;16.74;83.05
49055;BME280;35405;52.344;14.530;2023-08-06T05:18:31;99860.13;;;16.69;83.35
49055;BME280;35405;52.344;14.530;2023-08-06T05:20:56;99856.28;;;16.75;83.39
49055;BME280;35405;52.344;14.530;2023-08-06T05:23:22;99851.50;;;16.82;83.78
49055;BME280;35405;52.344;14.530;2023-08-06T05:25:47;99850.41;;;16.70;83.52
49055;BME280;35405;52.344;14.530;2023-08-06T05:28:12;99858.94;;;16.75;84.26
49055;BME280;35405;52.344;14.530;2023-08-06T05:30:41;99854.34;;;16.79;84.33
49055;BME280;35405;52.344;14.530;2023-08-06T05:33:06;99855.19;;;16.79;84.13
49055;BME280;35405;52.344;14.530;2023-08-06T05:35:31;99847.66;;;16.87;84.14
49055;BME280;35405;52.344;14.530;2023-08-06T05:37:56;99845.13;;;16.86;83.60
49055;BME280;35405;52.344;14.530;2023-08-06T05:40:21;99838.63;;;16.75;83.42
49055;BME280;35405;52.344;14.530;2023-08-06T05:42:47;99841.19;;;16.77;84.32
49055;BME280;35405;52.344;14.530;2023-08-06T05:45:12;99835.06;;;16.77;84.15
49055;BME280;35405;52.344;14.530;2023-08-06T05:47:37;99836.50;;;16.82;84.47
49055;BME280;35405;52.344;14.530;2023-08-06T05:50:02;99838.47;;;16.79;84.52
49055;BME280;35405;52.344;14.530;2023-08-06T05:52:28;99838.13;;;16.85;84.49
49055;BME280;35405;52.344;14.530;2023-08-06T05:54:53;99833.59;;;16.87;84.44
49055;BME280;35405;52.344;14.530;2023-08-06T05:57:20;99834.25;;;16.90;84.79
49055;BME280;35405;52.344;14.530;2023-08-06T05:59:45;99827.75;;;16.96;84.91
49055;BME280;35405;52.344;14.530;2023-08-06T06:02:10;99830.22;;;16.85;84.40
49055;BME280;35405;52.344;14.530;2023-08-06T06:04:37;99832.66;;;16.88;84.68
49055;BME280;35405;52.344;14.530;2023-08-06T06:07:02;99822.47;;;16.96;84.57
49055;BME280;35405;52.344;14.530;2023-08-06T06:09:27;99828.72;;;16.95;84.45
49055;BME280;35405;52.344;14.530;2023-08-06T06:11:52;99821.13;;;16.89;84.00
49055;BME280;35405;52.344;14.530;2023-08-06T06:14:18;99817.75;;;16.87;84.65
49055;BME280;35405;52.344;14.530;2023-08-06T06:16:43;99821.41;;;16.84;84.66
49055;BME280;35405;52.344;14.530;2023-08-06T06:19:08;99819.78;;;16.82;84.26
49055;BME280;35405;52.344;14.530;2023-08-06T06:21:33;99809.31;;;16.80;84.32
49055;BME280;35405;52.344;14.530;2023-08-06T06:23:59;99812.81;;;16.81;84.47
49055;BME280;35405;52.344;14.530;2023-08-06T06:26:24;99809.31;;;16.80;84.93
49055;BME280;35405;52.344;14.530;2023-08-06T06:28:49;99802.00;;;16.85;84.58
49055;BME280;35405;52.344;14.530;2023-08-06T06:31:14;99800.19;;;16.86;84.55
49055;BME280;35405;52.344;14.530;2023-08-06T06:33:40;99800.25;;;16.84;84.51
49055;BME280;35405;52.344;14.530;2023-08-06T06:36:06;99798.25;;;16.73;84.56
49055;BME280;35405;52.344;14.530;2023-08-06T06:38:32;99802.16;;;16.66;84.32
49055;BME280;35405;52.344;14.530;2023-08-06T06:40:57;99802.78;;;16.71;85.12
49055;BME280;35405;52.344;14.530;2023-08-06T06:43:23;99803.34;;;16.77;84.99
49055;BME280;35405;52.344;14.530;2023-08-06T06:45:58;99803.34;;;16.77;85.01
49055;BME280;35405;52.344;14.530;2023-08-06T06:48:25;99801.66;;;16.75;84.52
49055;BME280;35405;52.344;14.530;2023-08-06T06:50:50;99798.59;;;16.67;85.71
49055;BME280;35405;52.344;14.530;2023-08-06T06:53:15;99797.41;;;16.73;86.29
49055;BME280;35405;52.344;14.530;2023-08-06T06:55:40;99797.72;;;16.83;85.94
49055;BME280;35405;52.344;14.530;2023-08-06T06:58:05;99796.88;;;16.82;86.29
49055;BME280;35405;52.344;14.530;2023-08-06T07:00:31;99795.38;;;16.78;85.97
49055;BME280;35405;52.344;14.530;2023-08-06T07:02:56;99794.91;;;16.86;86.37
49055;BME280;35405;52.344;14.530;2023-08-06T07:05:21;99793.13;;;16.86;86.43
49055;BME280;35405;52.344;14.530;2023-08-06T07:07:46;99790.47;;;16.86;86.61
49055;BME280;35405;52.344;14.530;2023-08-06T07:10:11;99787.63;;;16.89;86.69
49055;BME280;35405;52.344;14.530;2023-08-06T07:12:37;99788.88;;;16.98;87.36
49055;BME280;35405;52.344;14.530;2023-08-06T07:15:03;99787.50;;;17.07;87.41
49055;BME280;35405;52.344;14.530;2023-08-06T07:17:29;99782.38;;;17.03;87.52
49055;BME280;35405;52.344;14.530;2023-08-06T07:19:55;99785.31;;;16.99;87.50
49055;BME280;35405;52.344;14.530;2023-08-06T07:22:20;99785.22;;;17.00;87.86
49055;BME280;35405;52.344;14.530;2023-08-06T07:24:45;99779.38;;;17.10;87.97
49055;BME280;35405;52.344;14.530;2023-08-06T07:27:10;99782.88;;;17.10;87.35
49055;BME280;35405;52.344;14.530;2023-08-06T07:29:35;99778.81;;;17.19;87.06
49055;BME280;35405;52.344;14.530;2023-08-06T07:32:00;99782.13;;;17.08;86.88
49055;BME280;35405;52.344;14.530;2023-08-06T07:34:26;99781.84;;;17.13;87.31
49055;BME280;35405;52.344;14.530;2023-08-06T07:36:51;99782.13;;;17.08;86.95
49055;BME280;35405;52.344;14.530;2023-08-06T07:39:16;99775.13;;;17.07;87.00
49055;BME280;35405;52.344;14.530;2023-08-06T07:41:41;99772.19;;;17.12;86.83
49055;BME280;35405;52.344;14.530;2023-08-06T07:44:07;99770.88;;;17.19;87.26
49055;BME280;35405;52.344;14.530;2023-08-06T07:46:32;99759.09;;;17.24;86.70
49055;BME280;35405;52.344;14.530;2023-08-06T07:48:57;99755.97;;;17.18;86.54
49055;BME280;35405;52.344;14.530;2023-08-06T07:51:22;99754.63;;;17.11;87.02
49055;BME280;35405;52.344;14.530;2023-08-06T07:53:47;99757.88;;;17.16;87.25
49055;BME280;35405;52.344;14.530;2023-08-06T07:56:13;99752.31;;;17.20;87.05
49055;BME280;35405;52.344;14.530;2023-08-06T07:58:38;99753.91;;;17.23;87.48
49055;BME280;35405;52.344;14.530;2023-08-06T08:01:03;99755.69;;;17.37;87.82
49055;BME280;35405;52.344;14.530;2023-08-06T08:03:28;99758.25;;;17.38;86.75
49055;BME280;35405;52.344;14.530;2023-08-06T08:05:54;99748.16;;;17.30;87.33
49055;BME280;35405;52.344;14.530;2023-08-06T08:08:21;99754.09;;;17.20;87.59
49055;BME280;35405;52.344;14.530;2023-08-06T08:10:46;99747.28;;;17.30;87.69
49055;BME280;35405;52.344;14.530;2023-08-06T08:13:11;99747.19;;;17.32;87.13
49055;BME280;35405;52.344;14.530;2023-08-06T08:15:37;99743.91;;;17.28;86.86
49055;BME280;35405;52.344;14.530;2023-08-06T08:18:02;99740.09;;;17.18;87.33
49055;BME280;35405;52.344;14.530;2023-08-06T08:20:27;99748.41;;;17.26;87.80
49055;BME280;35405;52.344;14.530;2023-08-06T08:22:56;99740.88;;;17.34;87.57
49055;BME280;35405;52.344;14.530;2023-08-06T08:25:22;99731.69;;;17.25;87.02
49055;BME280;35405;52.344;14.530;2023-08-06T08:27:47;99737.56;;;17.16;87.60
49055;BME280;35405;52.344;14.530;2023-08-06T08:30:12;99737.09;;;17.10;87.56
